sensor_id;sensor_type;location;lat;lon;timestamp;temperature;humidity
22442;DHT22;11388;54.456;9.752;2023-04-25T00:00:13;7.80;99.90
22442;DHT22;11388;54.456;9.752;2023-04-25T00:02:39;7.70;99.90
22442;DHT22;11388;54.456;9.752;2023-04-25T00:05:05;7.70;99.90
22442;DHT22;11388;54.456;9.752;2023-04-25T00:07:31;7.70;99.90
22442;DHT22;11388;54.456;9.752;2023-04-25T00:09:58;7.70;99.90
22442;DHT22;11388;54.456;9.752;2023-04-25T00:12:23;7.70;99.90
22442;DHT22;11388;54.456;9.752;2023-04-25T00:14:49;7.70;99.90
22442;DHT22;11388;54.456;9.752;2023-04-25T00:17:16;7.60;99.90
22442;DHT22;11388;54.456;9.752;2023-04-25T00:19:44;7.60;99.90
22442;DHT22;11388;54.456;9.752;2023-04-25T00:22:12;7.50;99.90
22442;DHT22;11388;54.456;9.752;2023-04-25T00:24:38;7.50;99.90
22442;DHT22;11388;54.456;9.752;2023-04-25T00:27:04;7.40;99.90
22442;DHT22;11388;54.456;9.752;2023-04-25T00:29:30;7.40;99.90
22442;DHT22;11388;54.456;9.752;2023-04-25T00:31:55;7.40;99.90
22442;DHT22;11388;54.456;9.752;2023-04-25T00:34:21;7.30;99.90
22442;DHT22;11388;54.456;9.752;2023-04-25T00:36:47;7.20;99.90
22442;DHT22;11388;54.456;9.752;2023-04-25T00:39:15;7.30;99.90
22442;DHT22;11388;54.456;9.752;2023-04-25T00:41:41;7.20;99.90
22442;DHT22;11388;54.456;9.752;2023-04-25T00:44:09;7.20;99.90
22442;DHT22;11388;54.456;9.752;2023-04-25T00:46:36;7.10;99.90
22442;DHT22;11388;54.456;9.752;2023-04-25T00:49:02;7.10;99.90
22442;DHT22;11388;54.456;9.752;2023-04-25T00:51:28;7.00;99.90
22442;DHT22;11388;54.456;9.752;2023-04-25T00:53:55;7.00;99.90
22442;DHT22;11388;54.456;9.752;2023-04-25T00:56:21;7.00;99.90
22442;DHT22;11388;54.456;9.752;2023-04-25T00:58:48;6.90;99.90
22442;DHT22;11388;54.456;9.752;2023-04-25T01:01:14;6.80;99.90
22442;DHT22;11388;54.456;9.752;2023-04-25T01:03:40;6.80;99.90
22442;DHT22;11388;54.456;9.752;2023-04-25T01:06:10;6.80;99.90
22442;DHT22;11388;54.456;9.752;2023-04-25T01:08:37;6.70;99.90
22442;DHT22;11388;54.456;9.752;2023-04-25T01:11:04;6.70;99.90
22442;DHT22;11388;54.456;9.752;2023-04-25T01:13:30;6.80;99.90
22442;DHT22;11388;54.456;9.752;2023-04-25T01:15:58;6.90;99.90
22442;DHT22;11388;54.456;9.752;2023-04-25T01:18:24;6.90;99.90
22442;DHT22;11388;54.456;9.752;2023-04-25T01:20:54;6.80;99.90
22442;DHT22;11388;54.456;9.752;2023-04-25T01:23:21;6.70;99.90
22442;DHT22;11388;54.456;9.752;2023-04-25T01:25:48;6.70;99.90
22442;DHT22;11388;54.456;9.752;2023-04-25T01:28:14;6.70;99.90
22442;DHT22;11388;54.456;9.752;2023-04-25T01:30:41;6.70;99.90
22442;DHT22;11388;54.456;9.752;2023-04-25T01:33:21;6.50;99.90
22442;DHT22;11388;54.456;9.752;2023-04-25T01:35:47;6.50;99.90
22442;DHT22;11388;54.456;9.752;2023-04-25T01:38:14;6.60;99.90
22442;DHT22;11388;54.456;9.752;2023-04-25T01:40:45;6.50;99.90
22442;DHT22;11388;54.456;9.752;2023-04-25T01:43:11;6.40;99.90
22442;DHT22;11388;54.456;9.752;2023-04-25T01:45:43;6.40;99.90
22442;DHT22;11388;54.456;9.752;2023-04-25T01:48:11;6.40;99.90
22442;DHT22;11388;54.456;9.752;2023-04-25T01:50:38;6.30;99.90
22442;DHT22;11388;54.456;9.752;2023-04-25T01:53:04;6.30;99.90
22442;DHT22;11388;54.456;9.752;2023-04-25T01:55:30;6.40;99.90
22442;DHT22;11388;54.456;9.752;2023-04-25T01:57:56;6.30;99.90
22442;DHT22;11388;54.456;9.752;2023-04-25T02:00:22;6.40;99.90
22442;DHT22;11388;54.456;9.752;2023-04-25T02:02:48;6.40;99.90
22442;DHT22;11388;54.456;9.752;2023-04-25T02:05:16;6.40;99.90
22442;DHT22;11388;54.456;9.752;2023-04-25T02:07:42;6.50;99.90
22442;DHT22;11388;54.456;9.752;2023-04-25T02:10:08;6.50;99.90
22442;DHT22;11388;54.456;9.752;2023-04-25T02:12:35;6.50;99.90
22442;DHT22;11388;54.456;9.752;2023-04-25T02:15:01;6.50;99.90
22442;DHT22;11388;54.456;9.752;2023-04-25T02:17:27;6.50;99.90
22442;DHT22;11388;54.456;9.752;2023-04-25T02:19:53;6.50;99.90
22442;DHT22;11388;54.456;9.752;2023-04-25T02:22:18;6.60;99.90
22442;DHT22;11388;54.456;9.752;2023-04-25T02:24:45;6.60;99.90
22442;DHT22;11388;54.456;9.752;2023-04-25T02:27:10;6.60;99.90
22442;DHT22;11388;54.456;9.752;2023-04-25T02:29:37;6.70;99.90
22442;DHT22;11388;54.456;9.752;2023-04-25T02:32:03;6.60;99.90
22442;DHT22;11388;54.456;9.752;2023-04-25T02:34:29;6.70;99.90
22442;DHT22;11388;54.456;9.752;2023-04-25T02:36:55;6.70;99.90
22442;DHT22;11388;54.456;9.752;2023-04-25T02:39:21;6.70;99.90
22442;DHT22;11388;54.456;9.752;2023-04-25T02:41:47;6.70;99.90
22442;DHT22;11388;54.456;9.752;2023-04-25T02:44:13;6.60;99.90
22442;DHT22;11388;54.456;9.752;2023-04-25T02:46:39;6.60;99.90
22442;DHT22;11388;54.456;9.752;2023-04-25T02:49:05;6.60;99.90
22442;DHT22;11388;54.456;9.752;2023-04-25T02:51:30;6.60;99.90
22442;DHT22;11388;54.456;9.752;2023-04-25T02:53:56;6.60;99.90
22442;DHT22;11388;54.456;9.752;2023-04-25T02:56:22;6.50;99.90
22442;DHT22;11388;54.456;9.752;2023-04-25T02:58:48;6.50;99.90
22442;DHT22;11388;54.456;9.752;2023-04-25T03:01:14;6.50;99.90
22442;DHT22;11388;54.456;9.752;2023-04-25T03:03:39;6.50;99.90
22442;DHT22;11388;54.456;9.752;2023-04-25T03:06:05;6.60;99.90
22442;DHT22;11388;54.456;9.752;2023-04-25T03:08:31;6.50;99.90
22442;DHT22;11388;54.456;9.752;2023-04-25T03:10:58;6.40;99.90
22442;DHT22;11388;54.456;9.752;2023-04-25T03:13:24;6.50;99.90
22442;DHT22;11388;54.456;9.752;2023-04-25T03:15:50;6.50;99.90
22442;DHT22;11388;54.456;9.752;2023-04-25T03:18:18;6.60;99.90
22442;DHT22;11388;54.456;9.752;2023-04-25T03:20:43;6.50;99.90
22442;DHT22;11388;54.456;9.752;2023-04-25T03:23:09;6.50;99.90
22442;DHT22;11388;54.456;9.752;2023-04-25T03:25:35;6.60;99.90
22442;DHT22;11388;54.456;9.752;2023-04-25T03:28:02;6.50;99.90
22442;DHT22;11388;54.456;9.752;2023-04-25T03:30:28;6.60;99.90
22442;DHT22;11388;54.456;9.752;2023-04-25T03:32:53;6.50;99.90
22442;DHT22;11388;54.456;9.752;2023-04-25T03:35:19;6.50;99.90
22442;DHT22;11388;54.456;9.752;2023-04-25T03:37:45;6.50;99.90
22442;DHT22;11388;54.456;9.752;2023-04-25T03:40:11;6.50;99.90
22442;DHT22;11388;54.456;9.752;2023-04-25T03:42:37;6.60;99.90
22442;DHT22;11388;54.456;9.752;2023-04-25T03:45:03;6.60;99.90
22442;DHT22;11388;54.456;9.752;2023-04-25T03:47:29;6.60;99.90
22442;DHT22;11388;54.456;9.752;2023-04-25T03:49:55;6.50;99.90
22442;DHT22;11388;54.456;9.752;2023-04-25T03:52:20;6.60;99.90
22442;DHT22;11388;54.456;9.752;2023-04-25T03:54:46;6.50;99.90
22442;DHT22;11388;54.456;9.752;2023-04-25T03:57:12;6.50;99.90
22442;DHT22;11388;54.456;9.752;2023-04-25T03:59:38;6.50;99.90
22442;DHT22;11388;54.456;9.752;2023-04-25T04:02:03;6.50;99.90
22442;DHT22;11388;54.456;9.752;2023-04-25T04:04:29;6.50;99.90
22442;DHT22;11388;54.456;9.752;2023-04-25T04:06:55;6.50;99.90
22442;DHT22;11388;54.456;9.752;2023-04-25T04:09:21;6.50;99.90
22442;DHT22;11388;54.456;9.752;2023-04-25T04:11:47;6.40;99.90
22442;DHT22;11388;54.456;9.752;2023-04-25T04:14:13;6.40;99.90
22442;DHT22;11388;54.456;9.752;2023-04-25T04:16:38;6.40;99.90
22442;DHT22;11388;54.456;9.752;2023-04-25T04:19:05;6.50;99.90
22442;DHT22;11388;54.456;9.752;2023-04-25T04:21:30;6.40;99.90
22442;DHT22;11388;54.456;9.752;2023-04-25T04:23:57;6.50;99.90
22442;DHT22;11388;54.456;9.752;2023-04-25T04:26:25;6.50;99.90
22442;DHT22;11388;54.456;9.752;2023-04-25T04:28:51;6.50;99.90
22442;DHT22;11388;54.456;9.752;2023-04-25T04:31:20;6.50;99.90
22442;DHT22;11388;54.456;9.752;2023-04-25T04:33:47;6.50;99.90
22442;DHT22;11388;54.456;9.752;2023-04-25T04:36:13;6.50;99.90
22442;DHT22;11388;54.456;9.752;2023-04-25T04:38:39;6.40;99.90
22442;DHT22;11388;54.456;9.752;2023-04-25T04:41:06;6.50;99.90
22442;DHT22;11388;54.456;9.752;2023-04-25T04:43:31;6.50;99.90
22442;DHT22;11388;54.456;9.752;2023-04-25T04:46:00;6.60;99.90
22442;DHT22;11388;54.456;9.752;2023-04-25T04:48:26;6.60;99.90
22442;DHT22;11388;54.456;9.752;2023-04-25T04:50:53;6.60;99.90
22442;DHT22;11388;54.456;9.752;2023-04-25T04:53:19;6.60;99.90
22442;DHT22;11388;54.456;9.752;2023-04-25T04:55:45;6.60;99.90
22442;DHT22;11388;54.456;9.752;2023-04-25T04:58:11;6.60;99.90
22442;DHT22;11388;54.456;9.752;2023-04-25T05:00:37;6.60;99.90
22442;DHT22;11388;54.456;9.752;2023-04-25T05:03:03;6.60;99.90
22442;DHT22;11388;54.456;9.752;2023-04-25T05:05:30;6.60;99.90
22442;DHT22;11388;54.456;9.752;2023-04-25T05:07:56;6.60;99.90
22442;DHT22;11388;54.456;9.752;2023-04-25T05:10:22;6.60;99.90
22442;DHT22;11388;54.456;9.752;2023-04-25T05:12:48;6.70;99.90
22442;DHT22;11388;54.456;9.752;2023-04-25T05:15:14;6.80;99.90
22442;DHT22;11388;54.456;9.752;2023-04-25T05:17:40;6.70;99.90
22442;DHT22;11388;54.456;9.752;2023-04-25T05:20:09;6.70;99.90
22442;DHT22;11388;54.456;9.752;2023-04-25T05:22:35;6.70;99.90
22442;DHT22;11388;54.456;9.752;2023-04-25T05:25:01;6.70;99.90
22442;DHT22;11388;54.456;9.752;2023-04-25T05:27:28;6.70;99.90
22442;DHT22;11388;54.456;9.752;2023-04-25T05:29:54;6.80;99.90
22442;DHT22;11388;54.456;9.752;2023-04-25T05:32:22;6.80;99.90
22442;DHT22;11388;54.456;9.752;2023-04-25T05:34:50;6.80;99.90
22442;DHT22;11388;54.456;9.752;2023-04-25T05:37:17;6.80;99.90
22442;DHT22;11388;54.456;9.752;2023-04-25T05:39:43;6.90;99.90
22442;DHT22;11388;54.456;9.752;2023-04-25T05:42:08;6.90;99.90
22442;DHT22;11388;54.456;9.752;2023-04-25T05:44:34;6.90;99.90
22442;DHT22;11388;54.456;9.752;2023-04-25T05:47:00;6.90;99.90
22442;DHT22;11388;54.456;9.752;2023-04-25T05:49:26;6.90;99.90
22442;DHT22;11388;54.456;9.752;2023-04-25T05:51:52;7.00;99.90
22442;DHT22;11388;54.456;9.752;2023-04-25T05:54:17;6.90;99.90
22442;DHT22;11388;54.456;9.752;2023-04-25T05:56:43;6.90;99.90
22442;DHT22;11388;54.456;9.752;2023-04-25T05:59:14;7.00;99.90
22442;DHT22;11388;54.456;9.752;2023-04-25T06:01:47;7.00;99.90
22442;DHT22;11388;54.456;9.752;2023-04-25T06:04:13;7.10;99.90
22442;DHT22;11388;54.456;9.752;2023-04-25T06:06:41;7.10;99.90
22442;DHT22;11388;54.456;9.752;2023-04-25T06:09:11;7.10;99.90
22442;DHT22;11388;54.456;9.752;2023-04-25T06:11:37;7.00;99.90
22442;DHT22;11388;54.456;9.752;2023-04-25T06:14:02;7.10;99.90
22442;DHT22;11388;54.456;9.752;2023-04-25T06:16:28;7.10;99.90
22442;DHT22;11388;54.456;9.752;2023-04-25T06:18:54;7.10;99.90
22442;DHT22;11388;54.456;9.752;2023-04-25T06:21:20;7.10;99.90
22442;DHT22;11388;54.456;9.752;2023-04-25T06:23:46;7.20;99.90
22442;DHT22;11388;54.456;9.752;2023-04-25T06:26:32;7.30;99.90
22442;DHT22;11388;54.456;9.752;2023-04-25T06:28:57;7.30;99.90
22442;DHT22;11388;54.456;9.752;2023-04-25T06:31:23;7.40;99.90
22442;DHT22;11388;54.456;9.752;2023-04-25T06:33:49;7.40;99.90
22442;DHT22;11388;54.456;9.752;2023-04-25T06:36:20;7.40;99.90
22442;DHT22;11388;54.456;9.752;2023-04-25T06:38:58;7.40;99.90
22442;DHT22;11388;54.456;9.752;2023-04-25T06:41:29;7.40;99.90
22442;DHT22;11388;54.456;9.752;2023-04-25T06:43:56;7.40;99.90
22442;DHT22;11388;54.456;9.752;2023-04-25T06:46:28;7.30;99.90
22442;DHT22;11388;54.456;9.752;2023-04-25T06:51:32;7.40;99.90
22442;DHT22;11388;54.456;9.752;2023-04-25T06:54:13;7.50;99.90
22442;DHT22;11388;54.456;9.752;2023-04-25T06:56:47;7.60;99.90
22442;DHT22;11388;54.456;9.752;2023-04-25T06:59:16;7.50;99.90
22442;DHT22;11388;54.456;9.752;2023-04-25T07:01:49;7.60;99.90
22442;DHT22;11388;54.456;9.752;2023-04-25T07:04:18;7.50;99.90
22442;DHT22;11388;54.456;9.752;2023-04-25T07:06:46;7.50;99.90
22442;DHT22;11388;54.456;9.752;2023-04-25T07:09:15;7.50;99.90
22442;DHT22;11388;54.456;9.752;2023-04-25T07:14:36;7.60;99.90
22442;DHT22;11388;54.456;9.752;2023-04-25T07:17:02;7.60;99.90
22442;DHT22;11388;54.456;9.752;2023-04-25T07:19:28;7.60;99.90
22442;DHT22;11388;54.456;9.752;2023-04-25T07:21:55;7.70;99.90
22442;DHT22;11388;54.456;9.752;2023-04-25T07:24:20;7.60;99.90
22442;DHT22;11388;54.456;9.752;2023-04-25T07:26:46;7.80;99.90
22442;DHT22;11388;54.456;9.752;2023-04-25T07:29:12;7.80;99.90
22442;DHT22;11388;54.456;9.752;2023-04-25T07:31:41;7.80;99.90
22442;DHT22;11388;54.456;9.752;2023-04-25T07:34:07;8.00;99.90
22442;DHT22;11388;54.456;9.752;2023-04-25T07:36:33;8.00;99.90
22442;DHT22;11388;54.456;9.752;2023-04-25T07:39:02;8.10;99.90
22442;DHT22;11388;54.456;9.752;2023-04-25T07:41:31;8.10;99.90
22442;DHT22;11388;54.456;9.752;2023-04-25T07:44:13;8.20;99.90
22442;DHT22;11388;54.456;9.752;2023-04-25T07:46:55;8.20;99.90
22442;DHT22;11388;54.456;9.752;2023-04-25T07:49:23;8.20;99.90
22442;DHT22;11388;54.456;9.752;2023-04-25T07:51:55;8.20;99.90
22442;DHT22;11388;54.456;9.752;2023-04-25T08:02:18;8.60;99.90
22442;DHT22;11388;54.456;9.752;2023-04-25T08:04:46;8.80;99.90
22442;DHT22;11388;54.456;9.752;2023-04-25T08:07:17;8.70;99.90
22442;DHT22;11388;54.456;9.752;2023-04-25T08:09:53;8.80;99.90
22442;DHT22;11388;54.456;9.752;2023-04-25T08:12:19;8.70;99.90
22442;DHT22;11388;54.456;9.752;2023-04-25T08:14:45;8.70;99.90
22442;DHT22;11388;54.456;9.752;2023-04-25T08:17:17;8.80;99.90
22442;DHT22;11388;54.456;9.752;2023-04-25T08:19:43;9.00;99.90
22442;DHT22;11388;54.456;9.752;2023-04-25T08:22:09;8.90;99.90
22442;DHT22;11388;54.456;9.752;2023-04-25T08:24:39;8.80;99.90
22442;DHT22;11388;54.456;9.752;2023-04-25T08:27:11;8.60;99.90
22442;DHT22;11388;54.456;9.752;2023-04-25T08:29:37;8.50;99.90
22442;DHT22;11388;54.456;9.752;2023-04-25T08:32:03;8.50;99.90
22442;DHT22;11388;54.456;9.752;2023-04-25T08:34:29;8.50;99.90
22442;DHT22;11388;54.456;9.752;2023-04-25T08:36:55;8.40;99.90
22442;DHT22;11388;54.456;9.752;2023-04-25T08:39:23;8.40;99.90
22442;DHT22;11388;54.456;9.752;2023-04-25T08:41:53;8.40;99.90
22442;DHT22;11388;54.456;9.752;2023-04-25T08:47:36;8.20;99.90
22442;DHT22;11388;54.456;9.752;2023-04-25T08:55:31;8.30;99.90
22442;DHT22;11388;54.456;9.752;2023-04-25T08:57:57;8.40;99.90
22442;DHT22;11388;54.456;9.752;2023-04-25T09:00:25;8.40;99.90
22442;DHT22;11388;54.456;9.752;2023-04-25T09:02:52;8.60;99.90
22442;DHT22;11388;54.456;9.752;2023-04-25T09:05:19;8.70;99.90
22442;DHT22;11388;54.456;9.752;2023-04-25T09:07:45;8.90;99.90
22442;DHT22;11388;54.456;9.752;2023-04-25T09:10:10;9.10;99.90
22442;DHT22;11388;54.456;9.752;2023-04-25T09:12:36;9.00;99.90
22442;DHT22;11388;54.456;9.752;2023-04-25T09:15:05;8.90;99.90
22442;DHT22;11388;54.456;9.752;2023-04-25T09:17:34;8.90;99.90
22442;DHT22;11388;54.456;9.752;2023-04-25T09:20:14;8.80;99.90
22442;DHT22;11388;54.456;9.752;2023-04-25T09:22:41;8.80;99.90
22442;DHT22;11388;54.456;9.752;2023-04-25T09:28:30;9.10;99.90
22442;DHT22;11388;54.456;9.752;2023-04-25T09:31:12;9.10;99.90
22442;DHT22;11388;54.456;9.752;2023-04-25T09:33:47;9.30;99.90
22442;DHT22;11388;54.456;9.752;2023-04-25T09:37:01;9.30;99.90
22442;DHT22;11388;54.456;9.752;2023-04-25T09:39:46;9.20;99.90
22442;DHT22;11388;54.456;9.752;2023-04-25T09:46:08;9.10;99.90
22442;DHT22;11388;54.456;9.752;2023-04-25T09:49:05;9.00;99.90
22442;DHT22;11388;54.456;9.752;2023-04-25T09:51:34;8.90;99.90
22442;DHT22;11388;54.456;9.752;2023-04-25T09:54:02;8.90;99.90
22442;DHT22;11388;54.456;9.752;2023-04-25T09:56:29;8.80;99.90
22442;DHT22;11388;54.456;9.752;2023-04-25T09:59:02;8.50;99.90
22442;DHT22;11388;54.456;9.752;2023-04-25T10:11:54;9.10;99.90
22442;DHT22;11388;54.456;9.752;2023-04-25T10:14:20;9.10;99.90
22442;DHT22;11388;54.456;9.752;2023-04-25T10:16:47;9.30;99.90
22442;DHT22;11388;54.456;9.752;2023-04-25T10:19:13;9.40;99.90
22442;DHT22;11388;54.456;9.752;2023-04-25T10:21:51;9.30;99.90
22442;DHT22;11388;54.456;9.752;2023-04-25T10:24:20;9.40;99.90
22442;DHT22;11388;54.456;9.752;2023-04-25T10:55:26;8.40;99.90
22442;DHT22;11388;54.456;9.752;2023-04-25T10:57:52;8.50;99.90
22442;DHT22;11388;54.456;9.752;2023-04-25T11:00:23;8.40;99.90
22442;DHT22;11388;54.456;9.752;2023-04-25T11:03:02;8.40;99.90
22442;DHT22;11388;54.456;9.752;2023-04-25T11:05:37;8.50;99.90
22442;DHT22;11388;54.456;9.752;2023-04-25T11:08:11;8.70;99.90
22442;DHT22;11388;54.456;9.752;2023-04-25T11:11:05;8.80;99.90
22442;DHT22;11388;54.456;9.752;2023-04-25T11:13:34;9.10;99.90
22442;DHT22;11388;54.456;9.752;2023-04-25T11:16:02;9.20;99.90
22442;DHT22;11388;54.456;9.752;2023-04-25T11:18:46;9.50;99.90
22442;DHT22;11388;54.456;9.752;2023-04-25T11:21:18;9.70;99.90
22442;DHT22;11388;54.456;9.752;2023-04-25T11:24:00;9.60;99.90
22442;DHT22;11388;54.456;9.752;2023-04-25T12:03:12;9.50;99.90
22442;DHT22;11388;54.456;9.752;2023-04-25T12:27:03;9.70;99.90
22442;DHT22;11388;54.456;9.752;2023-04-25T12:29:30;8.80;99.90
22442;DHT22;11388;54.456;9.752;2023-04-25T12:32:02;8.60;99.90
22442;DHT22;11388;54.456;9.752;2023-04-25T12:38:03;10.10;99.90
22442;DHT22;11388;54.456;9.752;2023-04-25T12:54:35;17.10;97.00
22442;DHT22;11388;54.456;9.752;2023-04-25T12:57:13;15.40;99.70
22442;DHT22;11388;54.456;9.752;2023-04-25T13:00:10;16.00;99.90
22442;DHT22;11388;54.456;9.752;2023-04-25T13:02:45;16.90;99.90
22442;DHT22;11388;54.456;9.752;2023-04-25T13:05:12;19.00;98.30
22442;DHT22;11388;54.456;9.752;2023-04-25T13:07:38;19.00;94.60
22442;DHT22;11388;54.456;9.752;2023-04-25T13:10:07;17.00;96.20
22442;DHT22;11388;54.456;9.752;2023-04-25T13:12:35;14.50;99.90
22442;DHT22;11388;54.456;9.752;2023-04-25T13:15:01;12.80;99.90
22442;DHT22;11388;54.456;9.752;2023-04-25T13:17:26;12.00;99.90
22442;DHT22;11388;54.456;9.752;2023-04-25T13:19:52;11.00;99.90
22442;DHT22;11388;54.456;9.752;2023-04-25T13:22:18;10.80;99.90
22442;DHT22;11388;54.456;9.752;2023-04-25T13:24:45;10.50;99.90
22442;DHT22;11388;54.456;9.752;2023-04-25T13:27:14;12.40;99.90
22442;DHT22;11388;54.456;9.752;2023-04-25T13:29:40;12.60;99.90
22442;DHT22;11388;54.456;9.752;2023-04-25T13:32:09;12.00;99.90
22442;DHT22;11388;54.456;9.752;2023-04-25T13:34:35;11.10;99.90
22442;DHT22;11388;54.456;9.752;2023-04-25T13:37:00;10.40;99.90
22442;DHT22;11388;54.456;9.752;2023-04-25T13:39:26;10.10;99.90
22442;DHT22;11388;54.456;9.752;2023-04-25T13:41:52;9.80;99.90
22442;DHT22;11388;54.456;9.752;2023-04-25T13:44:18;9.90;99.90
22442;DHT22;11388;54.456;9.752;2023-04-25T13:46:44;13.70;99.90
22442;DHT22;11388;54.456;9.752;2023-04-25T13:49:11;16.30;99.90
22442;DHT22;11388;54.456;9.752;2023-04-25T13:51:37;15.00;99.90
22442;DHT22;11388;54.456;9.752;2023-04-25T13:54:03;13.80;99.90
22442;DHT22;11388;54.456;9.752;2023-04-25T13:56:29;11.90;99.90
22442;DHT22;11388;54.456;9.752;2023-04-25T13:58:57;11.10;99.90
22442;DHT22;11388;54.456;9.752;2023-04-25T14:01:23;10.80;99.90
22442;DHT22;11388;54.456;9.752;2023-04-25T14:03:49;10.40;99.90
22442;DHT22;11388;54.456;9.752;2023-04-25T14:06:15;10.40;99.90
22442;DHT22;11388;54.456;9.752;2023-04-25T14:08:50;10.50;99.90
22442;DHT22;11388;54.456;9.752;2023-04-25T14:11:16;11.70;99.90
22442;DHT22;11388;54.456;9.752;2023-04-25T14:13:46;13.50;99.90
22442;DHT22;11388;54.456;9.752;2023-04-25T14:16:12;14.30;99.90
22442;DHT22;11388;54.456;9.752;2023-04-25T14:18:38;14.70;99.90
22442;DHT22;11388;54.456;9.752;2023-04-25T14:21:13;14.00;99.90
22442;DHT22;11388;54.456;9.752;2023-04-25T14:23:41;13.00;99.90
22442;DHT22;11388;54.456;9.752;2023-04-25T14:26:07;12.50;99.90
22442;DHT22;11388;54.456;9.752;2023-04-25T14:28:35;12.60;99.90
22442;DHT22;11388;54.456;9.752;2023-04-25T14:31:03;12.50;99.90
22442;DHT22;11388;54.456;9.752;2023-04-25T14:33:29;12.90;99.90
22442;DHT22;11388;54.456;9.752;2023-04-25T14:35:58;12.80;99.90
22442;DHT22;11388;54.456;9.752;2023-04-25T14:38:24;12.60;99.90
22442;DHT22;11388;54.456;9.752;2023-04-25T14:40:53;12.70;99.90
22442;DHT22;11388;54.456;9.752;2023-04-25T14:43:19;12.90;99.90
22442;DHT22;11388;54.456;9.752;2023-04-25T14:45:53;13.10;99.90
22442;DHT22;11388;54.456;9.752;2023-04-25T14:48:19;13.60;99.90
22442;DHT22;11388;54.456;9.752;2023-04-25T14:50:45;13.50;99.90
22442;DHT22;11388;54.456;9.752;2023-04-25T14:53:12;12.70;99.90
22442;DHT22;11388;54.456;9.752;2023-04-25T14:55:38;12.00;99.90
22442;DHT22;11388;54.456;9.752;2023-04-25T14:58:04;11.40;99.90
22442;DHT22;11388;54.456;9.752;2023-04-25T15:00:36;11.50;99.90
22442;DHT22;11388;54.456;9.752;2023-04-25T15:03:11;11.50;99.90
22442;DHT22;11388;54.456;9.752;2023-04-25T15:05:39;12.10;99.90
22442;DHT22;11388;54.456;9.752;2023-04-25T15:08:05;11.80;99.90
22442;DHT22;11388;54.456;9.752;2023-04-25T15:10:31;11.80;99.90
22442;DHT22;11388;54.456;9.752;2023-04-25T15:12:57;11.30;99.90
22442;DHT22;11388;54.456;9.752;2023-04-25T15:15:23;11.00;99.90
22442;DHT22;11388;54.456;9.752;2023-04-25T15:17:52;11.20;99.90
22442;DHT22;11388;54.456;9.752;2023-04-25T15:20:24;11.40;99.90
22442;DHT22;11388;54.456;9.752;2023-04-25T15:22:50;11.70;99.90
22442;DHT22;11388;54.456;9.752;2023-04-25T15:25:48;11.60;99.90
22442;DHT22;11388;54.456;9.752;2023-04-25T15:28:23;10.90;99.90
22442;DHT22;11388;54.456;9.752;2023-04-25T15:30:48;10.60;99.90
22442;DHT22;11388;54.456;9.752;2023-04-25T15:33:14;10.60;99.90
22442;DHT22;11388;54.456;9.752;2023-04-25T15:35:40;11.00;99.90
22442;DHT22;11388;54.456;9.752;2023-04-25T15:38:07;11.60;99.90
22442;DHT22;11388;54.456;9.752;2023-04-25T15:40:33;12.10;99.90
22442;DHT22;11388;54.456;9.752;2023-04-25T15:43:05;13.30;99.90
22442;DHT22;11388;54.456;9.752;2023-04-25T15:45:40;13.50;99.90
22442;DHT22;11388;54.456;9.752;2023-04-25T15:48:08;12.70;99.90
22442;DHT22;11388;54.456;9.752;2023-04-25T15:50:59;12.10;99.90
22442;DHT22;11388;54.456;9.752;2023-04-25T15:53:27;11.60;99.90
22442;DHT22;11388;54.456;9.752;2023-04-25T15:55:56;11.30;99.90
22442;DHT22;11388;54.456;9.752;2023-04-25T15:58:22;11.10;99.90
22442;DHT22;11388;54.456;9.752;2023-04-25T16:00:50;10.80;99.90
22442;DHT22;11388;54.456;9.752;2023-04-25T16:03:16;10.70;99.90
22442;DHT22;11388;54.456;9.752;2023-04-25T16:05:50;10.30;99.90
22442;DHT22;11388;54.456;9.752;2023-04-25T16:08:18;9.40;99.90
22442;DHT22;11388;54.456;9.752;2023-04-25T16:10:46;9.10;99.90
22442;DHT22;11388;54.456;9.752;2023-04-25T16:13:23;8.60;99.90
22442;DHT22;11388;54.456;9.752;2023-04-25T16:15:48;8.30;99.90
22442;DHT22;11388;54.456;9.752;2023-04-25T16:18:14;8.40;99.90
22442;DHT22;11388;54.456;9.752;2023-04-25T16:20:40;8.50;99.90
22442;DHT22;11388;54.456;9.752;2023-04-25T16:23:14;8.60;99.90
22442;DHT22;11388;54.456;9.752;2023-04-25T16:25:40;8.80;99.90
22442;DHT22;11388;54.456;9.752;2023-04-25T16:28:19;9.10;99.90
22442;DHT22;11388;54.456;9.752;2023-04-25T16:30:48;9.40;99.90
22442;DHT22;11388;54.456;9.752;2023-04-25T16:33:14;9.70;99.90
22442;DHT22;11388;54.456;9.752;2023-04-25T16:35:45;10.50;99.90
22442;DHT22;11388;54.456;9.752;2023-04-25T16:38:13;12.30;99.90
22442;DHT22;11388;54.456;9.752;2023-04-25T16:40:46;12.70;99.90
22442;DHT22;11388;54.456;9.752;2023-04-25T16:58:46;9.90;99.90
22442;DHT22;11388;54.456;9.752;2023-04-25T17:01:12;9.60;99.90
22442;DHT22;11388;54.456;9.752;2023-04-25T17:03:41;9.60;99.90
22442;DHT22;11388;54.456;9.752;2023-04-25T17:06:09;9.40;99.90
22442;DHT22;11388;54.456;9.752;2023-04-25T17:08:46;9.30;99.90
22442;DHT22;11388;54.456;9.752;2023-04-25T17:11:12;9.20;99.90
22442;DHT22;11388;54.456;9.752;2023-04-25T17:13:39;8.90;99.90
22442;DHT22;11388;54.456;9.752;2023-04-25T17:16:13;8.50;99.90
22442;DHT22;11388;54.456;9.752;2023-04-25T17:18:42;8.10;99.90
22442;DHT22;11388;54.456;9.752;2023-04-25T17:21:10;7.50;99.90
22442;DHT22;11388;54.456;9.752;2023-04-25T17:23:36;7.40;99.90
22442;DHT22;11388;54.456;9.752;2023-04-25T17:26:04;7.40;99.90
22442;DHT22;11388;54.456;9.752;2023-04-25T17:28:30;7.60;99.90
22442;DHT22;11388;54.456;9.752;2023-04-25T17:30:56;8.00;99.90
22442;DHT22;11388;54.456;9.752;2023-04-25T17:33:23;8.60;99.90
22442;DHT22;11388;54.456;9.752;2023-04-25T17:35:52;8.20;99.90
22442;DHT22;11388;54.456;9.752;2023-04-25T17:38:18;8.30;99.90
22442;DHT22;11388;54.456;9.752;2023-04-25T17:40:44;8.00;99.90
22442;DHT22;11388;54.456;9.752;2023-04-25T17:43:15;7.80;99.90
22442;DHT22;11388;54.456;9.752;2023-04-25T18:17:17;7.00;99.90
22442;DHT22;11388;54.456;9.752;2023-04-25T18:20:15;6.90;99.90
22442;DHT22;11388;54.456;9.752;2023-04-25T20:43:28;5.80;99.90
22442;DHT22;11388;54.456;9.752;2023-04-25T20:46:06;5.70;99.90
22442;DHT22;11388;54.456;9.752;2023-04-25T20:49:06;5.70;99.90
22442;DHT22;11388;54.456;9.752;2023-04-25T21:41:09;5.70;99.90
22442;DHT22;11388;54.456;9.752;2023-04-25T21:46:58;5.60;99.90
22442;DHT22;11388;54.456;9.752;2023-04-25T21:49:30;5.60;99.90
22442;DHT22;11388;54.456;9.752;2023-04-25T21:51:57;5.60;99.90
22442;DHT22;11388;54.456;9.752;2023-04-25T21:54:23;5.60;99.90
22442;DHT22;11388;54.456;9.752;2023-04-25T21:56:52;5.60;99.90
22442;DHT22;11388;54.456;9.752;2023-04-25T21:59:24;5.50;99.90
22442;DHT22;11388;54.456;9.752;2023-04-25T22:01:52;5.50;99.90
22442;DHT22;11388;54.456;9.752;2023-04-25T22:04:17;5.50;99.90
22442;DHT22;11388;54.456;9.752;2023-04-25T22:06:46;5.50;99.90
22442;DHT22;11388;54.456;9.752;2023-04-25T22:09:18;5.50;99.90
22442;DHT22;11388;54.456;9.752;2023-04-25T22:11:51;5.40;99.90
22442;DHT22;11388;54.456;9.752;2023-04-25T22:14:21;5.50;99.90